Time;durP1;ratioP1;P1;durP2;ratioP2;P2;SDS_P1;SDS_P2;PMS_P1;PMS_P2;Temp;Humidity;BMP_temperature;BMP_pressure;BME280_temperature;BME280_humidity;BME280_pressure;Samples;Min_cycle;Max_cycle;Signal;HPM_P1;HPM_P2
2021/09/19 00:01:24;;;;;;;9.65;8.73;;;;;;;16.90;67.58;100091.75;5009208;28;20416;-77
2021/09/19 00:03:49;;;;;;;9.30;8.40;;;;;;;16.89;67.74;100087.38;4997357;28;20543;-77
2021/09/19 00:06:15;;;;;;;10.10;9.00;;;;;;;16.84;67.65;100098.41;5012265;28;20396;-77
2021/09/19 00:08:40;;;;;;;13.13;9.73;;;;;;;16.83;67.81;100093.22;5012856;28;20446;-77
2021/09/19 00:11:05;;;;;;;9.90;9.00;;;;;;;16.83;67.91;100087.75;5003030;28;20765;-77
2021/09/19 00:13:31;;;;;;;10.32;9.43;;;;;;;16.80;68.05;100096.56;5010059;28;20993;-78
2021/09/19 00:15:59;;;;;;;9.90;9.17;;;;;;;16.80;68.34;100096.56;5000746;28;20396;-77
2021/09/19 00:18:25;;;;;;;10.23;9.27;;;;;;;16.79;68.17;100089.47;5002784;28;20394;-76
2021/09/19 00:20:50;;;;;;;10.20;9.23;;;;;;;16.76;68.28;100092.78;5005803;28;20487;-77
2021/09/19 00:23:18;;;;;;;10.05;9.02;;;;;;;16.76;68.54;100088.13;4981949;28;20436;-77
2021/09/19 00:25:43;;;;;;;10.40;9.40;;;;;;;16.80;68.32;100083.69;5003810;28;20409;-77
2021/09/19 00:28:09;;;;;;;10.57;9.53;;;;;;;16.82;68.37;100086.13;5006182;28;20403;-77
2021/09/19 00:30:34;;;;;;;10.13;9.33;;;;;;;16.81;68.27;100076.28;4993466;28;20451;-77
2021/09/19 00:33:00;;;;;;;10.00;9.00;;;;;;;16.80;68.54;100078.22;5012317;28;20389;-78
2021/09/19 00:35:29;;;;;;;9.83;8.83;;;;;;;16.82;68.75;100073.28;5012603;28;20389;-77
2021/09/19 00:37:55;;;;;;;10.40;9.40;;;;;;;16.80;68.53;100075.47;5007820;28;20480;-78
2021/09/19 00:40:20;;;;;;;10.27;9.40;;;;;;;16.75;68.67;100077.47;5014604;28;20510;-77
2021/09/19 00:42:48;;;;;;;9.70;8.83;;;;;;;16.71;69.11;100070.97;5012517;28;20412;-77
2021/09/19 00:45:17;;;;;;;10.30;9.40;;;;;;;16.66;68.99;100068.31;4994640;28;20405;-77
2021/09/19 00:47:43;;;;;;;10.18;9.23;;;;;;;16.63;69.40;100066.94;5012437;28;20436;-76
2021/09/19 00:50:12;;;;;;;9.35;8.57;;;;;;;16.59;69.62;100063.19;4989123;28;20942;-77
2021/09/19 00:52:40;;;;;;;11.17;10.13;;;;;;;16.57;69.87;100062.66;5008379;28;20463;-77
2021/09/19 00:55:09;;;;;;;11.68;9.32;;;;;;;16.54;69.93;100055.81;5008581;28;20408;-78
2021/09/19 00:58:04;;;;;;;11.38;10.38;;;;;;;16.46;69.96;100056.50;4995464;28;20397;-77
2021/09/19 01:00:30;;;;;;;9.67;8.87;;;;;;;16.45;69.68;100062.25;4994356;28;20439;-77
2021/09/19 01:02:59;;;;;;;10.87;9.90;;;;;;;16.47;69.94;100055.38;5012145;28;20448;-77
2021/09/19 01:05:24;;;;;;;11.48;9.55;;;;;;;16.46;69.83;100055.69;5001933;28;20481;-77
2021/09/19 01:07:50;;;;;;;9.98;9.07;;;;;;;16.45;70.18;100045.84;5003046;28;20994;-77
2021/09/19 01:10:19;;;;;;;10.95;10.05;;;;;;;16.44;70.33;100049.66;5003899;28;20431;-76
2021/09/19 01:12:44;;;;;;;10.48;9.50;;;;;;;16.45;70.49;100054.03;5010578;28;20448;-77
2021/09/19 01:15:12;;;;;;;9.85;8.98;;;;;;;16.41;69.86;100051.06;5012418;28;20918;-78
2021/09/19 01:17:40;;;;;;;10.38;9.57;;;;;;;16.37;70.41;100044.56;5006117;28;20405;-78
2021/09/19 01:20:13;;;;;;;10.85;9.85;;;;;;;16.35;70.44;100046.78;5011928;28;20476;-77
2021/09/19 01:22:42;;;;;;;10.75;9.75;;;;;;;16.35;70.58;100041.31;5001540;28;20519;-77
2021/09/19 01:25:11;;;;;;;10.77;9.67;;;;;;;16.34;70.44;100027.91;5003109;28;20473;-76
2021/09/19 01:27:37;;;;;;;11.82;9.82;;;;;;;16.33;70.57;100032.59;5004639;28;20408;-77
2021/09/19 01:30:04;;;;;;;10.40;9.40;;;;;;;16.33;70.43;100023.56;5011404;28;20408;-78
2021/09/19 01:32:30;;;;;;;9.65;8.75;;;;;;;16.32;70.33;100022.75;4990475;28;20454;-77
2021/09/19 01:34:55;;;;;;;11.03;10.00;;;;;;;16.36;70.18;100025.72;4992949;28;20404;-77
2021/09/19 01:37:20;;;;;;;11.13;10.13;;;;;;;16.31;70.21;100029.31;5011505;28;20437;-77
2021/09/19 01:39:48;;;;;;;11.57;9.82;;;;;;;16.26;71.08;100026.66;4993526;28;20416;-77
2021/09/19 01:42:14;;;;;;;10.75;9.85;;;;;;;16.25;70.76;100026.94;5004795;28;20429;-77
2021/09/19 01:44:40;;;;;;;10.60;9.63;;;;;;;16.21;70.44;100018.50;4977106;28;20412;-77
2021/09/19 01:47:09;;;;;;;10.43;9.53;;;;;;;16.11;70.67;100013.16;5005675;28;20948;-77
2021/09/19 01:49:34;;;;;;;10.55;9.63;;;;;;;16.00;70.93;100017.94;5011025;28;20768;-78
2021/09/19 01:51:59;;;;;;;10.83;9.93;;;;;;;16.00;71.18;100017.94;4988135;28;20405;-77
2021/09/19 01:54:27;;;;;;;10.40;9.47;;;;;;;15.98;71.11;100019.34;5009224;28;20441;-77
2021/09/19 01:56:52;;;;;;;10.23;9.38;;;;;;;16.01;70.90;100019.56;4995339;28;20487;-77
2021/09/19 01:59:20;;;;;;;9.90;8.90;;;;;;;15.99;71.12;100016.34;5010849;28;20405;-77
2021/09/19 02:01:48;;;;;;;9.80;8.88;;;;;;;16.02;71.13;100017.66;5010471;28;20428;-78
2021/09/19 02:04:14;;;;;;;10.15;9.32;;;;;;;16.04;71.07;100024.47;5009926;28;20408;-77
2021/09/19 02:06:39;;;;;;;10.52;8.77;;;;;;;16.05;70.92;100011.59;5012842;28;20398;-78
2021/09/19 02:09:04;;;;;;;8.73;7.93;;;;;;;16.11;70.84;100010.44;5013013;28;20906;-77
2021/09/19 02:11:29;;;;;;;10.20;9.30;;;;;;;16.13;70.74;100026.56;5024437;28;20424;-78
2021/09/19 02:13:55;;;;;;;11.60;8.30;;;;;;;16.04;70.96;100015.44;5010676;28;20404;-77
2021/09/19 02:16:22;;;;;;;9.20;8.43;;;;;;;16.01;70.83;100007.81;5005149;28;20475;-77
2021/09/19 02:18:49;;;;;;;9.25;8.35;;;;;;;15.90;71.09;100011.81;5011698;28;20408;-77
2021/09/19 02:21:17;;;;;;;9.30;8.40;;;;;;;15.90;71.18;100012.63;5003536;28;20444;-77
2021/09/19 02:23:43;;;;;;;8.15;7.45;;;;;;;15.90;71.34;100009.88;5015492;28;20414;-77
2021/09/19 02:26:09;;;;;;;9.10;7.83;;;;;;;15.91;71.22;100007.94;4996769;28;20389;-77
2021/09/19 02:28:35;;;;;;;8.80;7.97;;;;;;;15.94;71.02;100005.44;5014488;28;20760;-77
2021/09/19 02:31:01;;;;;;;8.35;7.45;;;;;;;15.94;70.93;100013.63;5014547;28;20415;-78
2021/09/19 02:33:30;;;;;;;7.78;7.15;;;;;;;15.96;70.80;100007.91;5012092;28;20413;-77
2021/09/19 02:35:55;;;;;;;7.83;7.00;;;;;;;15.97;70.84;100006.81;5014321;28;20411;-77
2021/09/19 02:38:20;;;;;;;8.30;7.10;;;;;;;15.98;70.48;99997.47;5012165;28;20396;-77
2021/09/19 02:40:46;;;;;;;7.60;7.00;;;;;;;15.96;70.69;99995.06;5011272;28;20499;-77
2021/09/19 02:43:11;;;;;;;7.13;6.60;;;;;;;15.95;70.94;99993.41;4997261;28;20451;-77
2021/09/19 02:45:39;;;;;;;6.93;6.40;;;;;;;15.94;70.62;99988.22;5014170;28;20409;-78
2021/09/19 02:48:05;;;;;;;6.53;6.03;;;;;;;15.89;70.42;99986.38;4996877;28;20447;-76
2021/09/19 02:50:30;;;;;;;6.30;5.80;;;;;;;15.86;70.53;99995.16;5011330;28;21022;-77
2021/09/19 02:52:56;;;;;;;7.03;5.53;;;;;;;15.80;70.78;99996.34;5013878;28;20412;-77
2021/09/19 02:55:22;;;;;;;5.70;5.23;;;;;;;15.79;70.99;99991.16;4994012;28;20400;-77
2021/09/19 02:57:49;;;;;;;6.47;5.95;;;;;;;15.77;70.81;99998.84;5014451;28;20436;-77
2021/09/19 03:00:18;;;;;;;5.70;5.20;;;;;;;15.75;70.45;99995.56;5012864;28;20484;-77
2021/09/19 03:02:44;;;;;;;5.95;5.40;;;;;;;15.75;70.35;99995.56;4996457;28;20848;-77
2021/09/19 03:05:11;;;;;;;5.72;5.32;;;;;;;15.68;70.32;99987.72;5007487;28;20890;-77
2021/09/19 03:07:37;;;;;;;6.40;5.90;;;;;;;15.68;70.52;99982.25;5013017;28;20489;-77
2021/09/19 03:10:04;;;;;;;5.43;5.05;;;;;;;15.69;70.31;99985.78;5011142;28;20429;-77
2021/09/19 03:12:30;;;;;;;6.15;5.57;;;;;;;15.65;70.47;99985.56;5015299;28;20467;-77
2021/09/19 03:14:55;;;;;;;5.63;5.18;;;;;;;15.66;70.37;99987.19;5009528;28;20401;-77
2021/09/19 03:17:20;;;;;;;5.90;5.33;;;;;;;15.63;70.86;99982.31;5012321;28;20455;-77
2021/09/19 03:19:45;;;;;;;5.93;5.30;;;;;;;15.64;70.77;99991.31;4996145;28;20426;-77
2021/09/19 03:22:11;;;;;;;5.27;4.87;;;;;;;15.63;70.65;99993.25;4995916;28;20423;-77
2021/09/19 03:24:36;;;;;;;6.20;5.00;;;;;;;15.62;70.86;99982.59;5013304;28;20963;-77
2021/09/19 03:27:02;;;;;;;5.40;4.97;;;;;;;15.58;70.28;99988.63;4995246;28;20405;-77
2021/09/19 03:29:27;;;;;;;6.30;5.00;;;;;;;15.55;70.50;99986.47;5013308;28;20876;-77
2021/09/19 03:31:52;;;;;;;5.32;4.93;;;;;;;15.54;70.63;99989.50;5003276;28;20412;-77
2021/09/19 03:34:18;;;;;;;4.97;4.60;;;;;;;15.51;70.89;99987.38;4995351;28;20459;-77
2021/09/19 03:36:43;;;;;;;4.87;4.57;;;;;;;15.48;70.99;99993.38;5010112;28;20768;-78
2021/09/19 03:39:09;;;;;;;4.53;4.23;;;;;;;15.40;70.88;99983.88;5012989;28;20915;-77
2021/09/19 03:41:35;;;;;;;4.85;4.38;;;;;;;15.35;71.34;99991.28;5010391;28;20428;-77
2021/09/19 03:44:00;;;;;;;4.35;4.05;;;;;;;15.36;71.15;99990.19;5013901;28;20404;-77
2021/09/19 03:46:26;;;;;;;4.50;4.23;;;;;;;15.35;70.92;99981.19;5012355;28;20401;-78
2021/09/19 03:48:52;;;;;;;4.93;4.43;;;;;;;15.26;71.13;99984.81;5013740;28;20401;-76
2021/09/19 03:51:17;;;;;;;5.10;4.32;;;;;;;15.22;71.58;99981.03;4993769;28;20415;-77
2021/09/19 03:53:42;;;;;;;4.17;3.77;;;;;;;15.24;71.07;99987.84;4994935;28;20424;-77
2021/09/19 03:56:10;;;;;;;4.23;3.83;;;;;;;15.22;70.84;99997.41;4994314;28;20500;-77
2021/09/19 03:58:35;;;;;;;4.50;3.97;;;;;;;15.23;71.27;99990.88;5020063;28;20420;-77
2021/09/19 04:01:01;;;;;;;4.67;4.27;;;;;;;15.24;71.22;99987.03;4995725;28;20807;-77
2021/09/19 04:03:26;;;;;;;3.70;3.53;;;;;;;15.20;71.11;99989.53;5012861;28;20409;-77
2021/09/19 04:05:51;;;;;;;3.95;3.55;;;;;;;15.19;71.11;99998.00;5009917;28;20521;-77
2021/09/19 04:08:16;;;;;;;8.13;3.80;;;;;;;15.19;71.06;99998.81;5012715;28;20400;-77
2021/09/19 04:10:42;;;;;;;3.77;3.57;;;;;;;15.19;70.91;99987.88;5008876;28;20424;-77
2021/09/19 04:13:07;;;;;;;3.80;3.50;;;;;;;15.21;70.80;99990.34;5008088;28;20888;-77
2021/09/19 04:15:32;;;;;;;3.80;3.50;;;;;;;15.22;71.01;99983.75;5011951;28;20420;-77
2021/09/19 04:17:58;;;;;;;3.72;3.42;;;;;;;15.22;70.82;99992.78;5012374;28;20756;-78
2021/09/19 04:20:23;;;;;;;3.40;3.20;;;;;;;15.20;70.54;99986.78;5012536;28;20396;-77
2021/09/19 04:22:48;;;;;;;3.43;3.20;;;;;;;15.12;70.54;99983.84;5010677;28;20418;-77
2021/09/19 04:25:14;;;;;;;3.65;3.40;;;;;;;15.12;70.96;99987.41;5010794;28;20863;-77
2021/09/19 04:27:39;;;;;;;3.60;3.40;;;;;;;15.13;70.94;99991.75;5009553;28;20770;-77
2021/09/19 04:30:06;;;;;;;3.27;3.17;;;;;;;15.08;70.88;99987.16;5010835;28;20475;-77
2021/09/19 04:32:31;;;;;;;3.20;3.10;;;;;;;14.99;70.98;99988.88;5011032;28;20489;-77
2021/09/19 04:34:56;;;;;;;3.20;3.00;;;;;;;14.96;71.25;99991.34;5012110;28;20407;-76
2021/09/19 04:37:22;;;;;;;4.23;2.90;;;;;;;14.96;70.91;99994.09;5011254;28;20404;-77
2021/09/19 04:39:47;;;;;;;2.97;2.78;;;;;;;14.97;70.31;99993.00;5009861;28;20443;-77
2021/09/19 04:42:14;;;;;;;3.47;3.17;;;;;;;14.99;70.76;100005.25;5015765;28;20787;-77
2021/09/19 04:44:40;;;;;;;3.30;3.10;;;;;;;15.02;70.92;100009.31;5011650;28;20512;-77
2021/09/19 04:47:05;;;;;;;3.13;2.93;;;;;;;14.99;71.17;100015.34;5011750;28;20737;-77
2021/09/19 04:49:32;;;;;;;3.20;3.00;;;;;;;14.99;70.57;100010.69;5012066;28;20397;-77
2021/09/19 04:51:58;;;;;;;3.13;2.93;;;;;;;14.96;70.73;100013.19;5012868;28;20404;-77
2021/09/19 04:54:25;;;;;;;2.85;2.75;;;;;;;14.96;70.81;100014.00;5012085;28;20919;-77
2021/09/19 04:56:50;;;;;;;2.95;2.85;;;;;;;14.94;70.60;100023.56;5004228;28;20419;-77
2021/09/19 04:59:15;;;;;;;3.55;2.58;;;;;;;14.98;70.59;100027.38;5011876;28;20392;-76
2021/09/19 05:01:41;;;;;;;4.50;2.50;;;;;;;14.97;70.19;100021.09;5011511;28;20405;-77
2021/09/19 05:04:06;;;;;;;3.10;2.80;;;;;;;14.98;70.69;100022.72;5011573;28;20507;-77
2021/09/19 05:06:31;;;;;;;3.83;2.73;;;;;;;14.98;70.56;100024.66;4990310;28;20757;-77
2021/09/19 05:08:56;;;;;;;3.17;2.73;;;;;;;14.96;70.26;100030.38;5010257;28;20484;-77
2021/09/19 05:11:22;;;;;;;3.15;2.85;;;;;;;14.91;70.46;100024.97;5007620;28;20834;-78
2021/09/19 05:13:47;;;;;;;3.23;2.97;;;;;;;14.92;70.66;100032.03;5008908;28;20425;-77
2021/09/19 05:16:12;;;;;;;2.87;2.67;;;;;;;14.93;70.69;100028.22;5009938;28;20439;-78
2021/09/19 05:18:38;;;;;;;2.93;2.70;;;;;;;14.90;70.64;100033.44;5010798;28;20765;-77
2021/09/19 05:21:03;;;;;;;3.10;2.90;;;;;;;14.91;70.02;100027.69;5011224;28;20431;-77
2021/09/19 05:23:29;;;;;;;2.67;2.58;;;;;;;14.87;70.39;100031.25;5009426;28;20961;-77
2021/09/19 05:25:55;;;;;;;2.90;2.70;;;;;;;14.82;70.39;100032.09;5008570;28;20498;-77
2021/09/19 05:28:20;;;;;;;2.28;2.13;;;;;;;14.76;70.45;100037.88;5009914;28;20496;-77
2021/09/19 05:30:45;;;;;;;2.67;2.53;;;;;;;14.76;70.74;100035.16;5012161;28;20909;-77
2021/09/19 05:33:11;;;;;;;3.10;2.80;;;;;;;14.78;70.80;100035.69;5010219;28;20413;-77
2021/09/19 05:35:36;;;;;;;2.97;2.77;;;;;;;14.78;70.88;100038.44;5008620;28;20419;-77
2021/09/19 05:38:05;;;;;;;3.30;3.00;;;;;;;14.84;70.50;100029.94;5010335;28;20486;-77
2021/09/19 05:40:31;;;;;;;3.40;2.88;;;;;;;14.82;70.62;100037.56;5007677;28;20401;-77
2021/09/19 05:42:57;;;;;;;3.00;2.70;;;;;;;14.82;70.62;100037.56;5007631;28;20998;-77
2021/09/19 05:45:22;;;;;;;4.00;2.57;;;;;;;14.84;70.73;100040.00;4992489;28;20408;-76
2021/09/19 05:47:47;;;;;;;8.17;3.00;;;;;;;14.83;70.71;100033.75;5013333;28;20404;-78
2021/09/19 05:50:12;;;;;;;9.40;2.80;;;;;;;14.85;70.65;100039.72;5010144;28;20404;-77
2021/09/19 05:52:38;;;;;;;2.97;2.67;;;;;;;14.86;70.49;100038.63;4995547;28;20955;-77
2021/09/19 05:55:03;;;;;;;2.70;2.60;;;;;;;14.89;70.42;100034.50;5010022;28;20524;-77
2021/09/19 05:57:29;;;;;;;3.37;2.87;;;;;;;14.88;70.48;100030.19;5014684;28;20803;-77
2021/09/19 05:59:54;;;;;;;3.77;2.80;;;;;;;14.95;70.75;100038.88;4999310;28;20744;-77
2021/09/19 06:02:19;;;;;;;6.50;3.27;;;;;;;14.99;70.34;100027.06;4997870;28;20506;-77
2021/09/19 06:04:45;;;;;;;4.10;3.50;;;;;;;15.03;70.01;100041.78;5016890;28;20408;-77
2021/09/19 06:07:10;;;;;;;3.97;3.67;;;;;;;15.10;69.65;100043.38;5016444;28;20760;-77
2021/09/19 06:09:35;;;;;;;3.95;2.90;;;;;;;15.15;69.35;100041.41;5015686;28;20494;-78
2021/09/19 06:12:01;;;;;;;3.43;3.17;;;;;;;15.19;69.53;100041.66;5015488;28;20428;-77
2021/09/19 06:14:26;;;;;;;7.00;3.83;;;;;;;15.21;69.31;100043.03;5014538;28;20408;-77
2021/09/19 06:16:51;;;;;;;3.10;2.90;;;;;;;15.20;69.41;100030.47;5019740;28;20404;-77
2021/09/19 06:19:17;;;;;;;3.63;3.33;;;;;;;15.17;69.63;100038.41;4998370;28;20415;-78
2021/09/19 06:21:42;;;;;;;3.73;3.43;;;;;;;15.18;69.82;100031.88;5017723;28;20875;-77
2021/09/19 06:24:07;;;;;;;4.50;4.10;;;;;;;15.21;69.95;100023.09;5012359;28;20419;-77
2021/09/19 06:26:33;;;;;;;3.80;3.50;;;;;;;15.26;69.18;100028.50;5012562;28;20399;-77
2021/09/19 06:28:58;;;;;;;4.43;4.07;;;;;;;15.28;69.39;100029.06;5015148;28;20411;-77
2021/09/19 06:31:23;;;;;;;7.57;5.60;;;;;;;15.34;69.61;100027.91;5008542;28;20768;-77
2021/09/19 06:33:48;;;;;;;5.17;4.77;;;;;;;15.39;69.10;100028.66;5015504;28;20465;-77
2021/09/19 06:36:14;;;;;;;6.27;4.97;;;;;;;15.62;68.00;100027.09;5012751;28;20895;-77
2021/09/19 06:38:39;;;;;;;5.30;4.43;;;;;;;15.70;67.83;100021.03;5015309;28;20501;-77
2021/09/19 06:41:04;;;;;;;4.40;4.00;;;;;;;15.64;68.03;100016.72;5031999;28;20412;-77
2021/09/19 06:43:30;;;;;;;3.30;3.20;;;;;;;15.56;68.41;100022.81;5013244;28;20412;-77
2021/09/19 06:45:57;;;;;;;3.70;3.50;;;;;;;15.57;68.57;100019.78;5014856;28;24030;-77
2021/09/19 06:48:22;;;;;;;3.07;2.83;;;;;;;15.61;68.16;100017.28;5015021;28;20404;-77
2021/09/19 06:50:48;;;;;;;2.90;2.80;;;;;;;15.60;68.56;100028.50;4996838;28;20408;-78
2021/09/19 06:53:13;;;;;;;3.13;2.90;;;;;;;15.54;69.00;100033.22;5012681;28;20455;-78
2021/09/19 06:55:38;;;;;;;4.40;3.17;;;;;;;15.53;68.99;100032.41;5017179;28;20943;-79
2021/09/19 06:58:03;;;;;;;4.10;3.70;;;;;;;15.55;68.54;100041.09;5015649;28;20416;-77
2021/09/19 07:00:29;;;;;;;3.40;3.13;;;;;;;15.58;69.07;100046.00;5012611;28;20890;-78
2021/09/19 07:02:55;;;;;;;6.73;4.37;;;;;;;15.63;68.92;100047.88;5016996;28;20432;-78
2021/09/19 07:05:20;;;;;;;5.18;3.72;;;;;;;15.65;68.56;100045.66;5014797;28;20416;-77
2021/09/19 07:07:46;;;;;;;3.65;3.35;;;;;;;15.65;68.49;100051.13;5011250;28;20458;-77
2021/09/19 07:10:12;;;;;;;3.67;3.40;;;;;;;15.68;68.37;100046.97;5009357;28;20417;-77
2021/09/19 07:12:37;;;;;;;3.55;3.25;;;;;;;15.69;68.69;100048.63;4997954;28;20416;-78
2021/09/19 07:15:04;;;;;;;3.63;3.00;;;;;;;15.72;68.62;100048.88;5011758;28;20411;-80
2021/09/19 07:17:30;;;;;;;5.10;3.10;;;;;;;15.78;68.74;100049.63;4995154;28;20888;-78
2021/09/19 07:19:55;;;;;;;3.57;3.27;;;;;;;15.80;68.64;100045.50;5011053;28;20400;-79
2021/09/19 07:22:20;;;;;;;3.03;2.93;;;;;;;15.81;68.27;100052.59;5008456;28;20494;-78
2021/09/19 07:24:46;;;;;;;3.55;3.17;;;;;;;15.82;68.52;100048.75;5008327;28;20438;-77
2021/09/19 07:27:11;;;;;;;3.50;3.20;;;;;;;15.90;68.75;100053.59;4994563;28;20417;-78
2021/09/19 07:29:36;;;;;;;3.30;3.10;;;;;;;15.93;68.40;100052.22;4994734;28;20903;-77
2021/09/19 07:32:06;;;;;;;5.80;3.47;;;;;;;15.95;68.70;100059.00;5010863;28;20482;-78
2021/09/19 07:34:33;;;;;;;3.97;3.22;;;;;;;15.95;67.60;100059.00;5005866;28;20408;-77
2021/09/19 07:36:59;;;;;;;3.67;3.38;;;;;;;16.02;67.54;100064.13;5005826;28;20475;-78
2021/09/19 07:39:26;;;;;;;3.40;3.20;;;;;;;16.10;67.77;100077.16;5001462;28;20499;-78
2021/09/19 07:41:53;;;;;;;3.13;2.97;;;;;;;16.10;67.38;100077.16;4998916;28;20508;-77
2021/09/19 07:44:20;;;;;;;4.10;3.70;;;;;;;16.15;67.29;100081.75;5003648;28;20494;-77
2021/09/19 07:46:46;;;;;;;4.25;3.15;;;;;;;16.17;67.28;100085.81;5000012;28;20409;-77
2021/09/19 07:49:12;;;;;;;3.55;3.35;;;;;;;16.21;66.93;100077.84;5006150;28;20439;-78
2021/09/19 07:51:38;;;;;;;3.75;3.42;;;;;;;16.24;66.93;100088.19;5010846;28;20412;-78
2021/09/19 07:54:03;;;;;;;3.30;3.10;;;;;;;16.27;66.81;100093.91;4992816;28;20405;-77
2021/09/19 07:56:29;;;;;;;2.73;2.60;;;;;;;16.32;67.02;100099.31;5008852;28;20904;-79
2021/09/19 07:58:54;;;;;;;3.47;3.27;;;;;;;16.38;67.14;100100.91;5010876;28;20491;-78
2021/09/19 08:01:20;;;;;;;3.70;3.40;;;;;;;16.42;66.70;100110.16;4996730;28;20458;-77
2021/09/19 08:03:45;;;;;;;4.43;3.40;;;;;;;16.43;66.53;100105.50;5012109;28;20404;-77
2021/09/19 08:06:10;;;;;;;3.53;3.33;;;;;;;16.41;66.51;100105.78;5004379;28;20820;-77
2021/09/19 08:08:35;;;;;;;4.20;3.90;;;;;;;16.41;66.44;100103.03;5011777;28;20432;-77
2021/09/19 08:11:01;;;;;;;4.47;3.60;;;;;;;16.44;66.38;100099.72;5008292;28;20463;-77
2021/09/19 08:13:26;;;;;;;3.83;3.30;;;;;;;16.51;66.60;100086.50;5011879;28;20903;-77
2021/09/19 08:15:51;;;;;;;3.40;3.20;;;;;;;16.59;66.30;100085.09;5012084;28;20404;-78
2021/09/19 08:18:17;;;;;;;3.20;3.00;;;;;;;16.63;66.37;100088.84;5011393;28;20930;-77
2021/09/19 08:20:43;;;;;;;3.60;3.30;;;;;;;16.68;65.86;100091.53;4986764;28;20748;-77
2021/09/19 08:23:09;;;;;;;3.58;3.33;;;;;;;16.73;66.04;100085.97;5012078;28;20439;-77
2021/09/19 08:25:34;;;;;;;3.08;2.88;;;;;;;16.82;66.16;100086.13;5011755;28;20953;-76
2021/09/19 08:28:00;;;;;;;3.43;3.17;;;;;;;16.91;65.63;100079.72;4994005;28;20882;-77
2021/09/19 08:30:25;;;;;;;3.43;3.20;;;;;;;16.97;65.05;100080.44;5010843;28;20431;-77
2021/09/19 08:32:50;;;;;;;2.90;2.80;;;;;;;17.00;64.85;100080.66;5011090;28;20407;-77
2021/09/19 08:35:16;;;;;;;3.47;3.27;;;;;;;17.08;64.90;100070.97;5009612;28;20772;-77
2021/09/19 08:37:42;;;;;;;2.75;2.65;;;;;;;17.12;65.01;100070.06;4993976;28;20507;-77
2021/09/19 08:40:10;;;;;;;6.50;3.60;;;;;;;17.17;64.71;100074.66;5007696;28;20924;-76
2021/09/19 08:42:37;;;;;;;3.17;2.97;;;;;;;17.21;64.70;100078.44;5010151;28;20432;-77
2021/09/19 08:45:04;;;;;;;3.07;2.77;;;;;;;17.34;64.32;100083.16;5007807;28;20755;-76
2021/09/19 08:47:30;;;;;;;2.95;2.85;;;;;;;17.42;64.17;100089.91;5008651;28;20407;-77
2021/09/19 08:49:59;;;;;;;6.63;5.13;;;;;;;17.46;64.18;100091.72;4993721;28;20488;-77
2021/09/19 08:52:24;;;;;;;4.50;3.83;;;;;;;17.55;64.14;100100.91;5010959;28;20531;-77
2021/09/19 08:54:50;;;;;;;2.40;2.30;;;;;;;17.61;63.71;100102.47;5011355;28;20834;-77
2021/09/19 08:57:16;;;;;;;3.43;2.87;;;;;;;17.69;63.79;100100.13;4989966;28;20408;-75
2021/09/19 08:59:46;;;;;;;3.72;3.33;;;;;;;17.72;63.69;100099.53;5011758;28;20405;-76
2021/09/19 09:02:14;;;;;;;3.97;3.58;;;;;;;17.74;63.62;100100.88;5007278;28;20962;-76
2021/09/19 09:04:40;;;;;;;3.87;3.50;;;;;;;17.76;63.41;100101.38;5010927;28;21110;-77
2021/09/19 09:07:06;;;;;;;3.13;3.03;;;;;;;17.83;62.89;100106.47;5009786;28;20536;-77
2021/09/19 09:09:31;;;;;;;5.82;4.30;;;;;;;17.90;63.37;100095.94;5009804;28;20488;-77
2021/09/19 09:12:06;;;;;;;5.77;4.23;;;;;;;17.97;63.25;100099.91;5008424;28;20471;-77
2021/09/19 09:14:43;;;;;;;3.37;3.07;;;;;;;18.05;63.24;100099.19;5009113;28;20926;-77
2021/09/19 09:17:11;;;;;;;4.23;2.83;;;;;;;18.16;62.64;100102.56;4993609;28;20401;-77
2021/09/19 09:19:41;;;;;;;3.78;2.92;;;;;;;18.24;62.27;100103.81;5018549;28;20439;-77
2021/09/19 09:22:09;;;;;;;3.20;2.90;;;;;;;18.33;62.13;100108.28;5015009;28;20451;-77
2021/09/19 09:24:39;;;;;;;2.90;2.80;;;;;;;18.43;61.90;100108.06;5002588;28;20424;-77
2021/09/19 09:27:21;;;;;;;3.22;2.65;;;;;;;18.54;62.05;100104.00;5008996;28;20412;-77
2021/09/19 09:30:07;;;;;;;2.60;2.50;;;;;;;18.60;60.85;100105.56;5005528;28;20404;-77
2021/09/19 09:32:54;;;;;;;5.50;4.05;;;;;;;18.75;60.56;100106.34;5008258;28;20416;-77
2021/09/19 09:35:21;;;;;;;3.05;2.85;;;;;;;18.93;60.74;100100.72;5008090;28;20420;-77
2021/09/19 09:37:47;;;;;;;5.75;3.97;;;;;;;19.11;60.27;100112.66;5010263;28;20420;-77
2021/09/19 09:40:16;;;;;;;6.85;3.92;;;;;;;19.33;60.25;100111.91;4998204;28;20409;-77
2021/09/19 09:43:02;;;;;;;3.97;2.92;;;;;;;19.64;58.87;100105.38;5012932;28;20434;-77
2021/09/19 09:45:27;;;;;;;4.05;3.80;;;;;;;20.12;57.18;100099.19;5015136;28;20404;-77
2021/09/19 09:47:53;;;;;;;4.50;4.10;;;;;;;21.04;54.96;100101.72;5009522;28;20455;-77
2021/09/19 09:50:27;;;;;;;4.18;2.78;;;;;;;21.63;53.08;100102.91;5010962;28;20539;-77
2021/09/19 09:53:11;;;;;;;3.30;3.10;;;;;;;21.92;52.03;100113.25;5012717;28;20411;-77
2021/09/19 09:55:42;;;;;;;2.20;2.10;;;;;;;22.30;50.74;100106.94;4990387;28;20476;-77
2021/09/19 09:58:09;;;;;;;3.50;3.20;;;;;;;22.62;50.75;100115.38;5008014;28;20459;-78
2021/09/19 10:00:36;;;;;;;2.75;2.55;;;;;;;23.01;48.83;100111.47;5000967;28;20391;-78
2021/09/19 10:03:02;;;;;;;4.10;3.88;;;;;;;23.60;47.47;100112.13;5010359;28;20467;-77
2021/09/19 10:05:29;;;;;;;3.70;3.40;;;;;;;24.02;47.72;100107.31;5010274;28;20444;-77
2021/09/19 10:07:55;;;;;;;2.42;2.33;;;;;;;24.20;45.86;100111.50;4990593;28;20432;-76
2021/09/19 10:10:22;;;;;;;4.22;3.17;;;;;;;24.27;45.84;100117.28;5000347;28;20415;-77
2021/09/19 10:12:50;;;;;;;2.50;2.40;;;;;;;24.67;45.25;100103.56;5002478;28;20412;-77
2021/09/19 10:15:16;;;;;;;3.20;3.10;;;;;;;25.13;44.69;100102.25;4984661;28;20564;-77
2021/09/19 10:17:43;;;;;;;3.92;3.72;;;;;;;25.38;43.50;100125.19;4999870;28;20420;-77
2021/09/19 10:20:18;;;;;;;3.15;3.05;;;;;;;25.28;42.70;100109.06;5003428;28;20927;-77
2021/09/19 10:23:16;;;;;;;2.80;2.38;;;;;;;25.23;43.48;100109.28;5011004;28;20421;-77
2021/09/19 10:25:47;;;;;;;3.33;3.03;;;;;;;25.29;42.97;100110.66;5004581;28;20779;-77
2021/09/19 10:28:21;;;;;;;2.80;2.70;;;;;;;24.26;45.05;100112.91;5015326;28;20408;-77
2021/09/19 10:31:05;;;;;;;2.60;2.50;;;;;;;23.31;47.24;100108.63;5009907;28;20420;-77
2021/09/19 10:33:34;;;;;;;3.65;2.90;;;;;;;22.75;49.18;100108.06;5010787;28;20407;-77
2021/09/19 10:36:01;;;;;;;3.13;2.23;;;;;;;22.33;50.02;100106.31;5019116;28;20423;-77
2021/09/19 10:38:38;;;;;;;3.50;3.40;;;;;;;22.32;50.42;100108.25;5006155;28;20895;-77
2021/09/19 10:41:21;;;;;;;3.25;3.00;;;;;;;23.77;47.60;100100.91;5007710;28;20500;-77
2021/09/19 10:44:00;;;;;;;2.45;2.38;;;;;;;24.52;46.00;100100.69;5000194;28;20424;-77
2021/09/19 10:46:34;;;;;;;3.33;3.13;;;;;;;25.38;43.23;100102.19;5008655;28;20462;-77
2021/09/19 10:49:19;;;;;;;4.57;2.55;;;;;;;25.19;43.43;100098.06;5001093;28;20460;-78
2021/09/19 10:52:00;;;;;;;3.50;3.37;;;;;;;24.93;43.84;100094.13;5011223;28;20459;-77
2021/09/19 10:54:43;;;;;;;3.33;3.13;;;;;;;25.87;42.06;100097.25;5012255;28;20413;-78
2021/09/19 10:57:29;;;;;;;3.60;3.15;;;;;;;26.55;40.64;100092.28;5013185;28;20401;-77
2021/09/19 11:00:15;;;;;;;3.28;3.05;;;;;;;26.69;40.21;100082.31;5012936;28;20896;-77
2021/09/19 11:02:42;;;;;;;3.13;2.92;;;;;;;26.86;40.06;100080.34;5013757;28;20423;-77
2021/09/19 11:05:27;;;;;;;10.57;4.35;;;;;;;27.06;39.30;100085.59;5014666;28;20405;-77
2021/09/19 11:08:08;;;;;;;2.85;2.72;;;;;;;27.04;39.22;100085.13;5005681;28;20536;-77
2021/09/19 11:10:34;;;;;;;3.50;3.30;;;;;;;27.11;38.53;100079.72;5003491;28;20424;-76
2021/09/19 11:13:21;;;;;;;3.50;3.30;;;;;;;26.95;38.70;100083.72;5009736;28;20495;-77
2021/09/19 11:16:02;;;;;;;3.50;3.20;;;;;;;26.41;40.35;100080.84;5017030;28;20420;-77
2021/09/19 11:18:28;;;;;;;3.88;3.28;;;;;;;25.51;41.98;100076.06;5027063;28;20931;-79
2021/09/19 11:21:27;;;;;;;3.60;3.30;;;;;;;25.32;42.77;100075.88;5013781;28;20439;-78
2021/09/19 11:23:57;;;;;;;3.58;3.38;;;;;;;25.36;42.92;100072.03;4992835;28;20853;-79
2021/09/19 11:26:24;;;;;;;3.10;2.90;;;;;;;25.49;43.25;100072.81;5013724;28;20884;-77